Pineville, South Carolina
Current Conditions -  °F | °C
As of 8:15 AM on Monday 22 Dec 2014 (Local Time) from KMKS Reporting Station
Haze Haze  
Wind Chill: 45°   Ceiling: NA
Heat Index: 45°   Visibility: 5mi
Dew Point: 43°   Wind: 3mph
Humidity: 93%   Direction: 20°NNE
Pressure: 30.08"   Gusts: NA
Location:  33.43°N, 80.02°W
Report Text: KMKS 221315Z AUTO 02003KT 5SM BR 07/06 A3008 RMK AO2
Loading
Personal Weather Stations






























Interactive Weather Map New forecast layout! Learn more

10-Day Weather Forecast

Advertisements
Track Severe Weather on mobile